Terminal Aerodrome Forecast
Issued by NWS

Home | Current Version | Previous Version | Text Only | Print | Product List | Glossary On
Versions: 1 2 3 4 5 6 7 8 9 10 11 12 13 14
008
FTUS46 KSGX 192320
TAFCRQ
TAF
KCRQ 192320Z 2000/2024 27010G20KT P6SM SCT035
     FM200200 29008KT P6SM FEW035
     FM200600 VRB04KT P6SM SKC
     FM202100 26007KT P6SM SKC=

USA.gov is the U.S. government's official web portal to all federal, state and local government web resources and services.